Time;durP1;ratioP1;P1;durP2;ratioP2;P2;SDS_P1;SDS_P2;PMS_P1;PMS_P2;Temp;Humidity;BMP_temperature;BMP_pressure;BME280_temperature;BME280_humidity;BME280_pressure;Samples;Min_cycle;Max_cycle;Signal;HPM_P1;HPM_P2
2022/06/03 00:01:41;;;;;;;;;;;;;;;19.91;60.28;100087.13;4486535;32;19985;-86
2022/06/03 00:04:07;;;;;;;;;;;;;;;20.14;60.29;100075.03;4486478;32;19985;-86
2022/06/03 00:06:51;;;;;;;;;;;;;;;19.98;60.29;100071.72;4471853;32;19992;-86
2022/06/03 00:09:22;;;;;;;;;;;;;;;19.98;60.29;100071.72;4486759;32;19976;-86
2022/06/03 00:11:51;;;;;;;;;;;;;;;20.19;60.30;100070.28;4472420;32;20007;-87
2022/06/03 00:14:16;;;;;;;;;;;;;;;19.98;60.29;100072.56;4486454;32;20254;-87
2022/06/03 00:16:50;;;;;;;;;;;;;;;20.00;60.28;100083.03;4471930;32;20015;-87
2022/06/03 00:19:24;;;;;;;;;;;;;;;20.01;60.30;100084.72;4458732;32;19968;-87
2022/06/03 00:21:56;;;;;;;;;;;;;;;19.92;60.29;100094.94;4489231;31;19980;-86
2022/06/03 00:24:39;;;;;;;;;;;;;;;19.75;60.28;100104.91;4502040;31;19988;-87
2022/06/03 00:27:28;;;;;;;;;;;;;;;19.70;60.28;100107.84;4502156;31;19968;-87
2022/06/03 00:29:53;;;;;;;;;;;;;;;19.62;60.27;100110.09;4493636;31;19972;-86
2022/06/03 00:32:24;;;;;;;;;;;;;;;19.59;60.27;100118.22;4487416;31;20345;-87
2022/06/03 00:35:03;;;;;;;;;;;;;;;19.38;60.25;100116.91;4502011;31;20381;-87
2022/06/03 00:37:31;;;;;;;;;;;;;;;19.37;60.25;100120.50;4501944;31;20039;-86
2022/06/03 00:40:15;;;;;;;;;;;;;;;19.43;60.26;100120.12;4487904;31;19984;-86
2022/06/03 00:42:59;;;;;;;;;;;;;;;19.39;60.26;100118.59;4487587;31;19988;-87
2022/06/03 00:45:28;;;;;;;;;;;;;;;19.30;60.26;100122.66;4502336;31;20032;-87
2022/06/03 00:48:02;;;;;;;;;;;;;;;19.02;60.24;100127.00;4501926;31;20032;-86
2022/06/03 00:50:46;;;;;;;;;;;;;;;18.99;60.24;100134.25;4501946;31;19987;-87
2022/06/03 00:53:30;;;;;;;;;;;;;;;19.00;60.24;100139.44;4502034;31;19986;-86
2022/06/03 00:56:01;;;;;;;;;;;;;;;19.08;60.25;100125.78;4487612;31;20033;-87
2022/06/03 00:58:39;;;;;;;;;;;;;;;18.92;60.22;100132.91;4501681;31;19980;-88
2022/06/03 01:01:04;;;;;;;;;;;;;;;19.05;60.23;100135.69;4487338;31;20397;-87
2022/06/03 01:03:42;;;;;;;;;;;;;;;18.45;60.21;100139.19;4501721;31;19991;-86
2022/06/03 01:06:07;;;;;;;;;;;;;;;18.38;60.21;100148.41;4474004;31;19999;-86
2022/06/03 01:08:51;;;;;;;;;;;;;;;18.41;60.21;100154.34;4501772;31;19968;-87
2022/06/03 01:11:19;;;;;;;;;;;;;;;18.56;60.22;100160.50;4487401;31;19975;-87
2022/06/03 01:13:50;;;;;;;;;;;;;;;18.49;60.22;100153.06;4474334;31;19989;-87
2022/06/03 01:16:34;;;;;;;;;;;;;;;18.37;60.20;100149.34;4501836;31;19988;-87
2022/06/03 01:19:16;;;;;;;;;;;;;;;18.45;60.20;100144.47;4501839;31;20080;-88
2022/06/03 01:21:44;;;;;;;;;;;;;;;18.31;60.20;100145.28;4487789;31;19995;-87
2022/06/03 01:24:15;;;;;;;;;;;;;;;18.28;60.19;100149.88;4487193;31;19992;-87
2022/06/03 01:26:53;;;;;;;;;;;;;;;18.29;60.19;100148.94;4487025;31;20492;-87
2022/06/03 01:29:28;;;;;;;;;;;;;;;18.27;60.19;100153.44;4501833;31;19990;-87
2022/06/03 01:32:12;;;;;;;;;;;;;;;18.30;60.20;100154.12;4487228;31;19968;-87
2022/06/03 01:34:56;;;;;;;;;;;;;;;18.28;60.19;100156.00;4502047;31;20015;-87
2022/06/03 01:37:23;;;;;;;;;;;;;;;18.15;60.18;100152.34;4501605;31;20028;-87
2022/06/03 01:39:54;;;;;;;;;;;;;;;18.13;60.19;100158.66;4472198;32;20031;-86
2022/06/03 01:42:25;;;;;;;;;;;;;;;18.28;60.19;100166.53;4485378;32;19977;-85
2022/06/03 01:44:50;;;;;;;;;;;;;;;18.32;60.20;100170.69;4458798;32;19988;-88
2022/06/03 01:47:24;;;;;;;;;;;;;;;18.34;60.20;100170.59;4485935;32;20006;-89
2022/06/03 01:49:56;;;;;;;;;;;;;;;18.22;60.20;100177.44;4485609;32;20285;-88
2022/06/03 01:52:40;;;;;;;;;;;;;;;18.05;60.18;100175.75;4471223;32;20048;-88
2022/06/03 01:55:20;;;;;;;;;;;;;;;18.16;60.19;100177.75;4485894;32;19984;-86
2022/06/03 01:58:04;;;;;;;;;;;;;;;18.10;60.19;100176.31;4485711;32;19985;-86
2022/06/03 02:00:29;;;;;;;;;;;;;;;18.21;60.19;100174.84;4485748;32;19984;-86
2022/06/03 02:03:13;;;;;;;;;;;;;;;18.23;60.20;100171.22;4485687;32;19982;-86
2022/06/03 02:05:47;;;;;;;;;;;;;;;18.24;60.20;100174.72;4485966;32;19980;-86
2022/06/03 02:08:18;;;;;;;;;;;;;;;18.30;60.20;100174.34;4487230;31;20075;-86
2022/06/03 02:10:43;;;;;;;;;;;;;;;18.28;60.19;100176.22;4492796;31;19993;-86
2022/06/03 02:13:16;;;;;;;;;;;;;;;18.38;60.21;100177.38;4485839;32;20294;-86
2022/06/03 02:16:13;;;;;;;;;;;;;;;18.47;60.21;100173.41;4472020;32;20344;-86
2022/06/03 02:18:44;;;;;;;;;;;;;;;18.51;60.21;100167.00;4449939;32;20318;-85
2022/06/03 02:21:26;;;;;;;;;;;;;;;18.54;60.21;100165.03;4486494;32;20062;-86
2022/06/03 02:24:10;;;;;;;;;;;;;;;18.48;60.21;100160.13;4472063;32;20324;-86
2022/06/03 02:26:42;;;;;;;;;;;;;;;18.52;60.20;100161.63;4486865;32;19996;-86
2022/06/03 02:32:10;;;;;;;;;;;;;;;18.21;60.19;100165.16;4486737;32;19983;-87
2022/06/03 02:35:14;;;;;;;;;;;;;;;18.08;60.19;100170.28;4486781;32;20033;-86
2022/06/03 02:37:57;;;;;;;;;;;;;;;18.20;60.19;100170.53;4422252;32;20017;-86
2022/06/03 02:40:26;;;;;;;;;;;;;;;18.32;60.20;100168.06;4422177;32;20338;-88
2022/06/03 02:42:51;;;;;;;;;;;;;;;18.12;60.19;100167.47;4446786;32;19976;-88
2022/06/03 02:45:30;;;;;;;;;;;;;;;18.06;60.18;100166.06;4486772;32;20265;-88
2022/06/03 02:48:14;;;;;;;;;;;;;;;18.14;60.18;100171.72;4472309;32;19992;-88
2022/06/03 02:50:45;;;;;;;;;;;;;;;17.97;60.18;100166.53;4472120;32;20011;-87
2022/06/03 02:53:29;;;;;;;;;;;;;;;17.82;60.16;100165.63;4472222;32;19995;-87
2022/06/03 02:56:13;;;;;;;;;;;;;;;17.68;60.16;100165.53;4472433;32;20285;-87
2022/06/03 02:58:58;;;;;;;;;;;;;;;17.66;60.16;100160.31;4472419;32;19985;-87
2022/06/03 03:01:38;;;;;;;;;;;;;;;17.56;60.16;100161.75;4486504;32;19980;-87
2022/06/03 03:04:09;;;;;;;;;;;;;;;17.62;60.17;100161.41;4486500;32;19982;-87
2022/06/03 03:06:40;;;;;;;;;;;;;;;17.91;60.17;100156.38;4486362;32;19991;-87
2022/06/03 03:09:24;;;;;;;;;;;;;;;17.32;60.14;100171.81;4486362;32;20317;-88
2022/06/03 03:12:02;;;;;;;;;;;;;;;17.19;60.14;100176.88;4472124;32;20056;-88
2022/06/03 03:14:28;;;;;;;;;;;;;;;17.20;60.13;100175.09;4458889;32;20027;-89
2022/06/03 03:17:11;;;;;;;;;;;;;;;17.25;60.14;100178.31;4486218;32;19996;-88
2022/06/03 03:19:36;;;;;;;;;;;;;;;17.28;60.14;100182.59;4486153;32;19981;-88
2022/06/03 03:22:08;;;;;;;;;;;;;;;17.42;60.15;100186.19;4486104;32;19991;-88
2022/06/03 03:24:52;;;;;;;;;;;;;;;17.55;60.15;100180.28;4486233;32;19973;-89
2022/06/03 03:27:20;;;;;;;;;;;;;;;17.53;60.15;100184.78;4486483;32;20015;-88
2022/06/03 03:29:45;;;;;;;;;;;;;;;17.65;60.16;100184.09;4471002;32;19980;-90
2022/06/03 03:32:29;;;;;;;;;;;;;;;17.73;60.17;100188.03;4490062;32;20003;-89
2022/06/03 03:35:23;;;;;;;;;;;;;;;17.75;60.17;100193.25;4488198;32;19973;-89
2022/06/03 03:37:58;;;;;;;;;;;;;;;17.89;60.17;100190.69;4429190;32;20359;-89
2022/06/03 03:40:36;;;;;;;;;;;;;;;17.74;60.17;100200.28;4471560;32;20008;-89
2022/06/03 03:43:25;;;;;;;;;;;;;;;17.78;60.17;100195.72;4471764;32;19992;-89
2022/06/03 03:45:56;;;;;;;;;;;;;;;17.90;60.17;100194.16;4455994;32;20003;-87
2022/06/03 03:48:27;;;;;;;;;;;;;;;18.13;60.19;100195.53;4471368;32;19976;-87
2022/06/03 03:50:53;;;;;;;;;;;;;;;18.40;60.20;100191.31;4471133;32;20007;-88
2022/06/03 03:53:21;;;;;;;;;;;;;;;18.63;60.21;100192.66;4471533;32;20262;-88
2022/06/03 03:55:49;;;;;;;;;;;;;;;18.82;60.22;100193.28;4485578;32;20380;-86
2022/06/03 03:58:33;;;;;;;;;;;;;;;18.91;60.23;100197.16;4485692;32;20003;-85
2022/06/03 04:01:02;;;;;;;;;;;;;;;18.96;60.23;100188.06;4485122;32;19995;-88
2022/06/03 04:03:50;;;;;;;;;;;;;;;19.03;60.24;100185.91;4471220;32;20008;-90
2022/06/03 04:06:35;;;;;;;;;;;;;;;19.20;60.24;100192.81;4471256;32;20389;-89
2022/06/03 04:09:12;;;;;;;;;;;;;;;19.30;60.24;100193.94;4471562;32;19981;-89
2022/06/03 04:11:40;;;;;;;;;;;;;;;19.57;60.26;100196.69;4470825;32;19980;-88
2022/06/03 04:14:24;;;;;;;;;;;;;;;19.63;60.27;100199.81;4470826;32;20093;-88
2022/06/03 04:16:52;;;;;;;;;;;;;;;19.77;60.28;100198.09;4485466;32;19981;-88
2022/06/03 04:19:20;;;;;;;;;;;;;;;19.97;60.28;100194.22;4470979;32;19969;-88
2022/06/03 04:21:54;;;;;;;;;;;;;;;20.42;60.31;100190.41;4485006;32;19980;-87
2022/06/03 04:24:49;;;;;;;;;;;;;;;20.51;60.31;100190.66;4471054;32;20014;-87
2022/06/03 04:27:29;;;;;;;;;;;;;;;20.49;60.31;100197.84;4428295;32;20445;-86
2022/06/03 04:30:13;;;;;;;;;;;;;;;20.67;60.32;100200.22;4485354;32;19976;-87
2022/06/03 04:32:38;;;;;;;;;;;;;;;20.88;60.33;100203.22;4470660;32;20040;-88
2022/06/03 04:35:22;;;;;;;;;;;;;;;20.90;60.33;100207.47;4470708;32;19999;-85
2022/06/03 04:38:00;;;;;;;;;;;;;;;21.06;60.34;100199.34;4485088;32;19965;-86
2022/06/03 04:40:44;;;;;;;;;;;;;;;21.15;60.34;100202.19;4485502;32;19977;-86
2022/06/03 04:43:15;;;;;;;;;;;;;;;21.29;60.35;100208.34;4473472;32;19992;-87
2022/06/03 04:45:43;;;;;;;;;;;;;;;21.30;60.35;100208.28;4487481;32;19984;-87
2022/06/03 04:48:08;;;;;;;;;;;;;;;21.32;60.36;100208.19;4473282;32;20447;-86
2022/06/03 04:50:36;;;;;;;;;;;;;;;21.48;60.36;100203.47;4487471;32;19997;-86
2022/06/03 04:53:10;;;;;;;;;;;;;;;21.42;60.36;100199.47;4487181;32;20025;-86
2022/06/03 04:55:51;;;;;;;;;;;;;;;21.57;60.37;100208.16;4487275;32;20336;-86
2022/06/03 04:58:28;;;;;;;;;;;;;;;21.58;60.37;100196.59;4487402;32;20052;-87
2022/06/03 05:01:03;;;;;;;;;;;;;;;21.72;60.37;100199.09;4472354;32;20045;-85
2022/06/03 05:03:32;;;;;;;;;;;;;;;21.86;60.39;100200.78;4472126;32;20045;-85
2022/06/03 05:06:17;;;;;;;;;;;;;;;22.31;60.39;100196.63;4469765;32;19992;-86
2022/06/03 05:09:01;;;;;;;;;;;;;;;22.21;60.40;100200.91;4470134;32;19991;-86
2022/06/03 05:11:29;;;;;;;;;;;;;;;22.50;60.41;100204.09;4470001;32;19998;-86
2022/06/03 05:14:03;;;;;;;;;;;;;;;22.48;60.42;100208.66;4485167;32;20317;-86
2022/06/03 05:16:28;;;;;;;;;;;;;;;22.83;60.43;100213.16;4487133;32;19985;-85
2022/06/03 05:18:55;;;;;;;;;;;;;;;22.83;60.43;100211.34;4487521;32;19992;-86
2022/06/03 05:21:39;;;;;;;;;;;;;;;22.83;60.43;100221.97;4481816;32;20024;-85
2022/06/03 05:24:23;;;;;;;;;;;;;;;22.93;60.43;100224.75;4487783;32;20002;-86
2022/06/03 05:27:08;;;;;;;;;;;;;;;23.05;60.44;100223.00;4472485;32;19992;-85
2022/06/03 05:29:48;;;;;;;;;;;;;;;23.26;60.44;100219.53;4472379;32;20344;-86
2022/06/03 05:32:14;;;;;;;;;;;;;;;23.28;60.46;100222.94;4486317;32;19964;-85
2022/06/03 05:34:45;;;;;;;;;;;;;;;23.42;60.47;100221.00;4486685;32;20305;-86
2022/06/03 05:37:29;;;;;;;;;;;;;;;23.49;60.46;100228.38;4486691;32;19992;-85
2022/06/03 05:39:57;;;;;;;;;;;;;;;23.34;60.46;100226.91;4486620;32;19981;-85
2022/06/03 05:42:27;;;;;;;;;;;;;;;23.55;60.47;100227.06;4486597;32;20001;-86
2022/06/03 05:45:04;;;;;;;;;;;;;;;23.71;60.47;100229.41;4472186;32;19989;-85
2022/06/03 05:47:31;;;;;;;;;;;;;;;23.70;60.48;100228.56;4472332;32;20049;-86
2022/06/03 05:49:59;;;;;;;;;;;;;;;23.91;60.49;100230.47;4472343;32;20344;-86
2022/06/03 05:52:31;;;;;;;;;;;;;;;24.00;60.49;100225.25;4471448;32;20623;-85
2022/06/03 05:55:09;;;;;;;;;;;;;;;24.09;60.49;100229.81;4472235;32;20010;-86
2022/06/03 05:57:40;;;;;;;;;;;;;;;24.12;60.50;100226.91;4472243;32;19988;-86
2022/06/03 06:00:15;;;;;;;;;;;;;;;24.24;60.51;100229.56;4486665;32;19973;-86
2022/06/03 06:02:41;;;;;;;;;;;;;;;24.33;60.51;100223.50;4486673;32;19972;-85
2022/06/03 06:05:25;;;;;;;;;;;;;;;24.47;60.52;100218.75;4472362;32;19989;-87
2022/06/03 06:08:09;;;;;;;;;;;;;;;24.73;60.53;100213.94;4472406;32;20341;-86
2022/06/03 06:10:40;;;;;;;;;;;;;;;24.60;60.53;100218.56;4486598;32;20012;-86
2022/06/03 06:13:24;;;;;;;;;;;;;;;24.76;60.54;100213.69;4486658;32;19983;-86
2022/06/03 06:15:58;;;;;;;;;;;;;;;24.91;60.54;100210.72;4485664;32;19999;-86
2022/06/03 06:18:27;;;;;;;;;;;;;;;24.80;60.53;100216.94;4457913;32;20010;-84
2022/06/03 06:21:07;;;;;;;;;;;;;;;24.86;60.54;100218.25;4497663;31;20066;-85
2022/06/03 06:23:43;;;;;;;;;;;;;;;24.92;60.54;100213.25;4500632;31;19999;-85
2022/06/03 06:26:11;;;;;;;;;;;;;;;25.12;60.55;100203.59;4471775;32;19981;-85
2022/06/03 06:28:36;;;;;;;;;;;;;;;24.97;60.54;100203.03;4472120;32;20015;-85
2022/06/03 06:31:04;;;;;;;;;;;;;;;25.06;60.54;100212.94;4485004;31;19989;-85
2022/06/03 06:33:32;;;;;;;;;;;;;;;25.31;60.57;100205.50;4499066;31;19968;-86
2022/06/03 06:36:10;;;;;;;;;;;;;;;25.35;60.56;100198.97;4487845;31;20235;-85
2022/06/03 06:38:49;;;;;;;;;;;;;;;25.50;60.57;100210.94;4486455;32;20332;-85
2022/06/03 06:41:24;;;;;;;;;;;;;;;25.80;60.59;100206.63;4478240;31;19991;-85
2022/06/03 06:43:50;;;;;;;;;;;;;;;26.06;60.60;100213.16;4487473;31;20324;-86
2022/06/03 06:46:20;;;;;;;;;;;;;;;26.34;60.61;100210.66;4469340;32;20120;-88
2022/06/03 06:49:04;;;;;;;;;;;;;;;26.51;60.62;100210.88;4472217;32;20001;-87
2022/06/03 06:51:41;;;;;;;;;;;;;;;26.49;60.62;100211.97;4486322;32;19988;-90
2022/06/03 06:54:18;;;;;;;;;;;;;;;26.79;60.64;100205.66;4472719;32;20041;-90
2022/06/03 06:56:53;;;;;;;;;;;;;;;27.14;60.65;100210.41;4486433;32;19972;-90
2022/06/03 06:59:37;;;;;;;;;;;;;;;27.23;60.66;100203.37;4485964;32;19989;-84
2022/06/03 07:02:05;;;;;;;;;;;;;;;27.14;60.65;100205.06;4485898;32;19993;-87
2022/06/03 07:04:31;;;;;;;;;;;;;;;27.15;60.66;100202.25;4471820;32;20308;-87
2022/06/03 07:07:09;;;;;;;;;;;;;;;27.19;60.67;100202.78;4472198;32;20413;-86
2022/06/03 07:09:34;;;;;;;;;;;;;;;27.28;60.67;100196.59;4498611;32;19980;-87
2022/06/03 07:12:02;;;;;;;;;;;;;;;27.20;60.66;100196.44;4488396;32;20046;-87
2022/06/03 07:14:31;;;;;;;;;;;;;;;27.17;60.65;100194.91;4471994;32;20056;-87
2022/06/03 07:19:52;;;;;;;;;;;;;;;27.36;60.67;100198.53;4486007;32;19999;-84
2022/06/03 07:22:18;;;;;;;;;;;;;;;27.39;60.67;100203.59;4486117;32;20011;-84
2022/06/03 07:24:49;;;;;;;;;;;;;;;27.44;60.67;100195.97;4486163;32;20309;-84
2022/06/03 07:27:39;;;;;;;;;;;;;;;27.56;60.68;100192.13;4486113;32;20041;-84
2022/06/03 07:30:05;;;;;;;;;;;;;;;27.63;60.68;100185.22;4483585;32;19988;-84
2022/06/03 07:32:33;;;;;;;;;;;;;;;27.80;60.69;100178.25;4490597;31;19995;-85
2022/06/03 07:35:04;;;;;;;;;;;;;;;27.73;60.68;100183.34;4474246;31;19990;-83
2022/06/03 07:37:49;;;;;;;;;;;;;;;27.72;60.69;100178.16;4487141;31;20029;-84
2022/06/03 07:40:18;;;;;;;;;;;;;;;27.82;60.70;100173.59;4495339;31;19984;-83
2022/06/03 07:42:43;;;;;;;;;;;;;;;28.10;60.71;100179.75;4485834;32;20039;-84
2022/06/03 07:45:12;;;;;;;;;;;;;;;28.27;60.71;100173.59;4485681;32;19985;-84
2022/06/03 07:47:37;;;;;;;;;;;;;;;28.20;60.71;100180.53;4471301;32;20327;-83
2022/06/03 07:50:04;;;;;;;;;;;;;;;28.23;60.72;100180.22;4471306;32;19989;-83
2022/06/03 07:52:32;;;;;;;;;;;;;;;28.28;60.71;100177.97;4471154;32;19972;-84
2022/06/03 07:54:58;;;;;;;;;;;;;;;28.47;60.73;100179.66;4471150;32;19987;-85
2022/06/03 07:57:24;;;;;;;;;;;;;;;28.63;60.74;100179.81;4471169;32;19981;-85
2022/06/03 07:59:49;;;;;;;;;;;;;;;28.78;60.74;100181.91;4457861;32;20093;-85
2022/06/03 08:02:18;;;;;;;;;;;;;;;29.08;60.75;100176.13;4470820;32;19972;-85
2022/06/03 08:04:45;;;;;;;;;;;;;;;29.07;60.75;100176.28;4470975;32;20311;-83
2022/06/03 08:12:57;;;;;;;;;;;;;;;29.04;60.75;100170.25;4485200;32;20029;-83
2022/06/03 08:15:23;;;;;;;;;;;;;;;28.95;60.75;100168.53;4471353;32;19972;-82
2022/06/03 08:17:49;;;;;;;;;;;;;;;29.08;60.75;100169.94;4459720;32;20325;-83
2022/06/03 08:20:15;;;;;;;;;;;;;;;29.17;60.77;100169.00;4487451;32;19977;-81
2022/06/03 08:22:40;;;;;;;;;;;;;;;29.22;60.76;100172.03;4472946;32;19972;-82
2022/06/03 08:25:05;;;;;;;;;;;;;;;29.52;60.79;100171.56;4472355;32;23853;-83
2022/06/03 08:27:31;;;;;;;;;;;;;;;29.60;60.78;100158.19;4486683;32;20000;-83
2022/06/03 08:30:20;;;;;;;;;;;;;;;29.51;60.78;100156.47;4487332;32;20022;-83
2022/06/03 08:32:53;;;;;;;;;;;;;;;29.70;60.79;100160.75;4464805;32;19980;-84
2022/06/03 08:35:19;;;;;;;;;;;;;;;29.79;60.79;100159.75;4473038;32;20021;-85
2022/06/03 08:38:02;;;;;;;;;;;;;;;30.13;60.81;100159.72;4486158;31;19985;-85
2022/06/03 08:40:37;;;;;;;;;;;;;;;30.19;60.82;100153.69;4477379;32;19993;-84
2022/06/03 08:43:12;;;;;;;;;;;;;;;30.44;60.81;100148.34;4486203;32;19981;-83
2022/06/03 08:45:46;;;;;;;;;;;;;;;30.71;60.84;100156.09;4495585;31;19972;-81
2022/06/03 08:48:12;;;;;;;;;;;;;;;30.77;60.84;100150.06;4474982;32;20003;-84
2022/06/03 08:50:41;;;;;;;;;;;;;;;30.81;60.84;100151.38;4486116;32;20000;-84
2022/06/03 08:53:39;;;;;;;;;;;;;;;31.07;60.86;100153.03;4471444;32;20615;-83
2022/06/03 08:56:05;;;;;;;;;;;;;;;31.18;60.87;100152.69;4442467;32;19969;-80
2022/06/03 08:58:36;;;;;;;;;;;;;;;31.34;60.87;100157.19;4471794;32;19992;-80
2022/06/03 09:01:05;;;;;;;;;;;;;;;31.22;60.86;100156.69;4458794;32;19984;-81
2022/06/03 09:03:31;;;;;;;;;;;;;;;31.35;60.87;100156.16;4486091;32;19990;-80
2022/06/03 09:05:56;;;;;;;;;;;;;;;31.48;60.88;100161.00;4485876;32;19969;-80
2022/06/03 09:08:28;;;;;;;;;;;;;;;31.52;60.88;100155.09;4485787;32;19969;-81
2022/06/03 09:11:03;;;;;;;;;;;;;;;31.48;60.88;100145.72;4458160;32;19996;-82
2022/06/03 09:13:39;;;;;;;;;;;;;;;31.41;60.87;100147.41;4485854;32;20439;-81
2022/06/03 09:16:05;;;;;;;;;;;;;;;31.34;60.87;100147.25;4485974;32;20011;-82
2022/06/03 09:18:31;;;;;;;;;;;;;;;31.17;60.87;100142.09;4471493;32;20322;-81
2022/06/03 09:20:56;;;;;;;;;;;;;;;31.18;60.87;100141.91;4471565;32;19998;-80
2022/06/03 09:23:21;;;;;;;;;;;;;;;31.45;60.87;100143.34;4485540;32;19992;-80
2022/06/03 09:25:48;;;;;;;;;;;;;;;31.76;60.89;100143.41;4486207;32;20029;-82
2022/06/03 09:28:15;;;;;;;;;;;;;;;31.89;60.90;100140.12;4471999;32;20046;-79
2022/06/03 09:30:40;;;;;;;;;;;;;;;32.09;60.91;100140.53;4472683;32;20009;-79
2022/06/03 09:33:07;;;;;;;;;;;;;;;32.05;60.91;100140.88;4486011;32;30095;-79
2022/06/03 09:35:33;;;;;;;;;;;;;;;32.08;60.91;100144.22;4472488;32;19981;-79
2022/06/03 09:37:59;;;;;;;;;;;;;;;32.09;60.90;100140.53;4472544;32;19984;-80
2022/06/03 09:40:28;;;;;;;;;;;;;;;32.26;60.91;100142.13;4472524;32;19992;-80
2022/06/03 09:42:55;;;;;;;;;;;;;;;32.41;60.92;100150.25;4472624;32;20268;-81
2022/06/03 09:45:20;;;;;;;;;;;;;;;32.48;60.92;100143.97;4486811;32;19973;-81
2022/06/03 09:47:46;;;;;;;;;;;;;;;32.75;60.95;100152.50;4472448;32;20021;-81
2022/06/03 09:50:13;;;;;;;;;;;;;;;32.83;60.95;100155.97;4472487;32;20310;-80
2022/06/03 09:52:38;;;;;;;;;;;;;;;33.00;60.96;100153.13;4472508;32;20024;-81
2022/06/03 09:55:06;;;;;;;;;;;;;;;33.13;60.96;100156.88;4485666;32;27831;-80
2022/06/03 09:57:35;;;;;;;;;;;;;;;33.00;60.96;100159.37;4472232;32;20003;-80
2022/06/03 10:00:30;;;;;;;;;;;;;;;33.34;60.97;100147.22;4472430;32;19989;-81
2022/06/03 10:02:56;;;;;;;;;;;;;;;33.33;60.97;100146.38;4469084;32;19977;-80
2022/06/03 10:05:21;;;;;;;;;;;;;;;33.40;60.97;100152.72;4485867;32;19979;-81
2022/06/03 10:07:47;;;;;;;;;;;;;;;33.48;60.98;100154.47;4472432;32;19988;-83
2022/06/03 10:13:00;;;;;;;;;;;;;;;33.74;61.00;100138.59;4486747;32;19990;-82
2022/06/03 10:15:38;;;;;;;;;;;;;;;33.90;61.00;100144.84;4472558;32;20831;-82
2022/06/03 10:18:05;;;;;;;;;;;;;;;34.03;61.00;100145.81;4473314;32;20348;-81
2022/06/03 10:20:30;;;;;;;;;;;;;;;34.17;61.01;100141.41;4472032;32;20001;-82
2022/06/03 10:22:55;;;;;;;;;;;;;;;34.34;61.01;100144.69;4486011;32;20020;-81
2022/06/03 10:25:20;;;;;;;;;;;;;;;34.36;61.03;100148.91;4486566;32;19976;-82
2022/06/03 10:27:46;;;;;;;;;;;;;;;34.40;61.02;100139.38;4486192;32;21170;-82
2022/06/03 10:30:11;;;;;;;;;;;;;;;34.18;61.01;100138.50;4486536;32;19981;-82
2022/06/03 10:32:36;;;;;;;;;;;;;;;34.16;61.01;100137.88;4486382;32;19987;-82
2022/06/03 10:35:09;;;;;;;;;;;;;;;34.26;61.02;100132.13;4486054;32;23276;-83
2022/06/03 10:37:37;;;;;;;;;;;;;;;34.52;61.03;100120.75;4486333;32;20040;-82
2022/06/03 10:40:02;;;;;;;;;;;;;;;34.53;61.03;100125.13;4485914;32;20356;-82
2022/06/03 10:42:28;;;;;;;;;;;;;;;34.73;61.04;100125.28;4472207;32;19968;-82
2022/06/03 10:44:57;;;;;;;;;;;;;;;34.72;61.03;100115.50;4486368;32;20067;-83
2022/06/03 10:47:23;;;;;;;;;;;;;;;34.76;61.05;100117.59;4486346;32;19988;-84
2022/06/03 10:49:51;;;;;;;;;;;;;;;34.77;61.05;100113.88;4472177;32;20011;-81
2022/06/03 11:03:30;;;;;;;;;;;;;;;34.96;61.05;100106.97;4473634;32;20032;-83
2022/06/03 11:05:55;;;;;;;;;;;;;;;34.80;61.04;100101.84;4471777;32;20000;-82
2022/06/03 11:08:21;;;;;;;;;;;;;;;34.74;61.04;100098.03;4471206;32;19994;-83
2022/06/03 11:10:47;;;;;;;;;;;;;;;34.59;61.04;100107.31;4471946;32;19989;-82
2022/06/03 11:13:13;;;;;;;;;;;;;;;34.67;61.03;100109.84;4471546;32;20032;-82
2022/06/03 11:15:42;;;;;;;;;;;;;;;34.52;61.04;100106.41;4471727;32;20015;-82
2022/06/03 11:18:28;;;;;;;;;;;;;;;34.68;61.04;100095.31;4471827;32;20007;-82
2022/06/03 11:20:54;;;;;;;;;;;;;;;34.40;61.02;100095.28;4486130;32;19985;-82
2022/06/03 11:23:19;;;;;;;;;;;;;;;34.24;61.02;100085.56;4471432;32;19968;-83
2022/06/03 11:25:46;;;;;;;;;;;;;;;34.07;61.01;100084.13;4458558;32;19999;-81
2022/06/03 11:28:19;;;;;;;;;;;;;;;34.00;61.01;100086.78;4471346;32;20048;-81
2022/06/03 11:30:59;;;;;;;;;;;;;;;34.11;61.02;100071.94;4471592;32;19996;-81
2022/06/03 11:33:29;;;;;;;;;;;;;;;34.34;61.02;100083.41;4471514;32;19972;-82
2022/06/03 11:35:54;;;;;;;;;;;;;;;34.56;61.03;100075.25;4471604;32;20309;-82
2022/06/03 11:38:20;;;;;;;;;;;;;;;34.64;61.04;100075.09;4485739;32;20002;-82
2022/06/03 11:40:52;;;;;;;;;;;;;;;34.83;61.05;100062.75;4471619;32;20031;-83
2022/06/03 11:43:29;;;;;;;;;;;;;;;34.97;61.04;100062.62;4471874;32;19980;-82
2022/06/03 11:45:58;;;;;;;;;;;;;;;35.30;61.06;100051.16;4484922;32;20325;-83
2022/06/03 11:48:37;;;;;;;;;;;;;;;35.24;61.07;100044.66;4471491;32;20000;-83
2022/06/03 11:51:03;;;;;;;;;;;;;;;35.17;61.06;100038.41;4471708;32;20215;-83
2022/06/03 11:53:29;;;;;;;;;;;;;;;35.18;61.06;100034.66;4472968;32;20246;-83
2022/06/03 11:55:54;;;;;;;;;;;;;;;35.09;61.07;100044.00;4487130;32;19991;-84
2022/06/03 11:58:28;;;;;;;;;;;;;;;35.43;61.07;100031.44;4487046;32;20012;-83
2022/06/03 12:00:57;;;;;;;;;;;;;;;35.63;61.08;100029.63;4473031;32;19976;-83
2022/06/03 12:03:41;;;;;;;;;;;;;;;35.57;61.09;100020.47;4473003;32;19973;-83
2022/06/03 12:06:14;;;;;;;;;;;;;;;35.68;61.08;100017.13;4473125;32;20475;-83
2022/06/03 12:08:44;;;;;;;;;;;;;;;35.74;61.09;100004.66;4473420;32;19999;-84
2022/06/03 12:13:14;;;;;;;;;;;;;;;35.86;61.10;100013.03;4473471;32;20003;-84
2022/06/03 12:14:16;;;;;;;;;;;;;;;35.77;61.09;100014.25;4475487;32;19973;-84
2022/06/03 12:16:51;;;;;;;;;;;;;;;35.83;61.10;100019.69;4487454;32;20002;-85
2022/06/03 12:19:27;;;;;;;;;;;;;;;35.89;61.11;100007.19;4472901;32;19988;-84
2022/06/03 12:21:53;;;;;;;;;;;;;;;35.76;61.09;99994.47;4472152;32;20029;-84
2022/06/03 12:24:39;;;;;;;;;;;;;;;35.78;61.09;99997.78;4487465;32;20409;-82
2022/06/03 12:27:04;;;;;;;;;;;;;;;35.78;61.09;99989.66;4487032;32;19965;-81
2022/06/03 12:29:32;;;;;;;;;;;;;;;35.90;61.10;99985.31;4472057;32;32709;-84
2022/06/03 12:31:58;;;;;;;;;;;;;;;35.96;61.10;99983.63;4459911;32;20455;-83
2022/06/03 12:34:24;;;;;;;;;;;;;;;36.12;61.10;99983.22;4472940;32;19968;-83
2022/06/03 12:36:53;;;;;;;;;;;;;;;35.96;61.10;99978.22;4473207;32;19973;-83
2022/06/03 12:39:18;;;;;;;;;;;;;;;36.14;61.11;99974.88;4487375;32;19990;-83
2022/06/03 12:41:43;;;;;;;;;;;;;;;36.19;61.11;99981.34;4487032;32;19976;-84
2022/06/03 12:44:09;;;;;;;;;;;;;;;36.16;61.12;99976.34;4487407;32;20306;-84
2022/06/03 12:46:34;;;;;;;;;;;;;;;36.11;61.11;99970.72;4459376;32;27476;-84
2022/06/03 12:48:59;;;;;;;;;;;;;;;36.18;61.12;99968.84;4487357;32;20014;-83
2022/06/03 12:51:28;;;;;;;;;;;;;;;36.32;61.12;99963.44;4486609;32;22344;-82
2022/06/03 12:54:02;;;;;;;;;;;;;;;36.19;61.10;99964.25;4472350;32;20051;-82
2022/06/03 12:56:41;;;;;;;;;;;;;;;36.28;61.11;99960.28;4486514;32;19972;-82
2022/06/03 12:59:17;;;;;;;;;;;;;;;36.39;61.13;99956.94;4472088;32;19999;-81
2022/06/03 13:01:49;;;;;;;;;;;;;;;36.39;61.12;99961.53;4458159;32;20067;-82
2022/06/03 13:04:32;;;;;;;;;;;;;;;36.33;61.12;99956.97;4486466;32;19987;-83
2022/06/03 13:07:13;;;;;;;;;;;;;;;36.22;61.12;99961.16;4486169;32;19964;-83
2022/06/03 13:09:51;;;;;;;;;;;;;;;36.15;61.11;99953.00;4471829;32;19992;-83
2022/06/03 13:12:17;;;;;;;;;;;;;;;36.05;61.10;99957.19;4471971;32;19988;-82
2022/06/03 13:14:43;;;;;;;;;;;;;;;36.02;61.10;99958.44;4472021;32;20395;-83
2022/06/03 13:17:09;;;;;;;;;;;;;;;36.11;61.11;99943.62;4458761;32;20019;-83
2022/06/03 13:19:34;;;;;;;;;;;;;;;36.03;61.10;99941.16;4470921;32;30507;-82
2022/06/03 13:22:07;;;;;;;;;;;;;;;35.91;61.10;99948.22;4486079;32;20016;-80
2022/06/03 13:24:36;;;;;;;;;;;;;;;35.86;61.10;99946.13;4486088;32;20312;-82
2022/06/03 13:27:05;;;;;;;;;;;;;;;35.95;61.10;99942.16;4458187;32;19988;-82
2022/06/03 13:29:48;;;;;;;;;;;;;;;35.89;61.10;99948.44;4486238;32;20004;-81
2022/06/03 13:32:14;;;;;;;;;;;;;;;35.88;61.11;99945.94;4486065;32;19988;-84